Conquistador — WDE8212 — position and weather

sailwx.info

Track history (hours):
 
Tides and Currents Weather Stations Pressure Air Temp Water Temp Dewpoint Dewpoint Depression Visibility Wind Speed Wind Dir Waves Ship Positions

Conquistador

Owner: national facilities corp, Santa Monica, CA. More information available from US FCC via Universal Licensing System and Coast Guard Vessel Documentation Center.

Last reported at 2016-Jul-25 04:06 UTC. Time now 2016-Jul-25 08:08 UTC.
Position N 32°44' W 117°12'.

Length 22 m.

Type: Pleasure craft. MMSI: 367402860.

Date/timePositionNaut miles runAvg speedWind from/ knotsBaromVisibWave heightAir tempDewpointWater temp
2016-Jul-25 04:06N 32°44' W 117°12'  
2016-Jul-22 08:30N 32°44' W 117°12'0 0.0
2016-Jul-20 05:30N 32°44' W 117°12'7 0.1
2016-Jul-18 03:32N 32°44' W 117°20'1110.5
2016-Jul-18 02:31N 32°52' W 117°28'9 9.4
2016-Jul-18 01:33N 32°59' W 117°35'11 9.5
2016-Jul-18 00:20N 33°08' W 117°43'911.0
2016-Jul-17 23:33N 33°15' W 117°50'1110.7
2016-Jul-17 22:31N 33°24' W 117°58'1010.5
2016-Jul-17 21:33N 33°32' W 118°05'14 4.8
2016-Jul-17 18:33N 33°37' W 118°21'12 1.2
2016-Jul-17 08:06N 33°28' W 118°32'0 0.0
2016-Jul-17 07:30N 33°28' W 118°32'0 0.0
2016-Jul-17 01:12N 33°28' W 118°32'0 0.0
2016-Jul-16 23:24N 33°28' W 118°32'0 0.0
2016-Jul-16 18:24N 33°28' W 118°32'0 0.0
2016-Jul-16 16:12N 33°28' W 118°32'0 0.0
2016-Jul-16 14:30N 33°28' W 118°32'0 0.0
2016-Jul-16 11:12N 33°28' W 118°32'0 0.0
2016-Jul-16 09:30N 33°28' W 118°32'0 0.0
2016-Jul-16 07:30N 33°28' W 118°32'0 0.0
2016-Jul-16 06:30N 33°28' W 118°32'0 0.0
2016-Jul-15 16:29N 33°28' W 118°32'0 0.0
2016-Jul-15 07:23N 33°28' W 118°32'0 0.0
2016-Jul-15 06:11N 33°28' W 118°32'  
Track history (hours):
 
Tides and Currents Weather Stations Pressure Air Temp Water Temp Dewpoint Dewpoint Depression Visibility Wind Speed Wind Dir Waves Ship Positions

Conquistador

Owner: national facilities corp, Santa Monica, CA. More information available from US FCC via Universal Licensing System and Coast Guard Vessel Documentation Center.

Last reported at 2016-Jul-25 04:06 UTC. Time now 2016-Jul-25 08:08 UTC.
Position N 32°44' W 117°12'.

Length 22 m.

Type: Pleasure craft. MMSI: 367402860.

Date/timePositionNaut miles runAvg speedWind from/ knotsBaromVisibWave heightAir tempDewpointWater temp
2016-Jul-25 04:06N 32°44' W 117°12'  
2016-Jul-22 08:30N 32°44' W 117°12'0 0.0
2016-Jul-20 05:30N 32°44' W 117°12'7 0.1
2016-Jul-18 03:32N 32°44' W 117°20'1110.5
2016-Jul-18 02:31N 32°52' W 117°28'9 9.4
2016-Jul-18 01:33N 32°59' W 117°35'11 9.5
2016-Jul-18 00:20N 33°08' W 117°43'911.0
2016-Jul-17 23:33N 33°15' W 117°50'1110.7
2016-Jul-17 22:31N 33°24' W 117°58'1010.5
2016-Jul-17 21:33N 33°32' W 118°05'14 4.8
2016-Jul-17 18:33N 33°37' W 118°21'12 1.2
2016-Jul-17 08:06N 33°28' W 118°32'0 0.0
2016-Jul-17 07:30N 33°28' W 118°32'0 0.0
2016-Jul-17 01:12N 33°28' W 118°32'0 0.0
2016-Jul-16 23:24N 33°28' W 118°32'0 0.0
2016-Jul-16 18:24N 33°28' W 118°32'0 0.0
2016-Jul-16 16:12N 33°28' W 118°32'0 0.0
2016-Jul-16 14:30N 33°28' W 118°32'0 0.0
2016-Jul-16 11:12N 33°28' W 118°32'0 0.0
2016-Jul-16 09:30N 33°28' W 118°32'0 0.0
2016-Jul-16 07:30N 33°28' W 118°32'0 0.0
2016-Jul-16 06:30N 33°28' W 118°32'0 0.0
2016-Jul-15 16:29N 33°28' W 118°32'0 0.0
2016-Jul-15 07:23N 33°28' W 118°32'0 0.0
2016-Jul-15 06:11N 33°28' W 118°32'  

Dump ship's entire track history